Time;durP1;ratioP1;P1;durP2;ratioP2;P2;SDS_P1;SDS_P2;PMS_P1;PMS_P2;Temp;Humidity;BMP_temperature;BMP_pressure;BME280_temperature;BME280_humidity;BME280_pressure;Samples;Min_cycle;Max_cycle;Signal;HPM_P1;HPM_P2
2021/12/01 00:00:29;;;;;;;0.77;0.30;;;;;;;;;;5055020;28;20021;-66
2021/12/01 00:02:55;;;;;;;0.95;0.20;;;;;;;;;;5054960;28;20048;-65
2021/12/01 00:05:20;;;;;;;0.77;0.20;;;;;;;;;;5054807;28;20107;-66
2021/12/01 00:07:46;;;;;;;0.30;0.08;;;;;;;;;;5055020;28;20151;-65
2021/12/01 00:10:11;;;;;;;0.57;0.32;;;;;;;;;;5036848;28;20021;-65
2021/12/01 00:12:36;;;;;;;1.15;0.40;;;;;;;;;;5054844;28;20372;-65
2021/12/01 00:15:03;;;;;;;2.03;0.15;;;;;;;;;;5054997;28;20021;-66
2021/12/01 00:17:28;;;;;;;0.32;0.10;;;;;;;;;;5055037;28;20021;-66
2021/12/01 00:19:53;;;;;;;0.93;0.10;;;;;;;;;;5054851;28;20464;-65
2021/12/01 00:22:18;;;;;;;0.75;0.20;;;;;;;;;;5054444;28;20262;-65
2021/12/01 00:24:44;;;;;;;1.10;0.10;;;;;;;;;;5054631;28;20021;-65
2021/12/01 00:27:09;;;;;;;0.40;0.10;;;;;;;;;;5054454;28;20043;-65
2021/12/01 00:29:34;;;;;;;0.88;0.20;;;;;;;;;;5054586;28;20254;-65
2021/12/01 00:32:00;;;;;;;1.08;0.25;;;;;;;;;;5054336;28;20036;-65
2021/12/01 00:34:25;;;;;;;1.05;0.30;;;;;;;;;;5054250;28;20063;-66
2021/12/01 00:36:50;;;;;;;0.22;0.10;;;;;;;;;;5054478;28;20013;-66
2021/12/01 00:39:15;;;;;;;0.63;0.20;;;;;;;;;;5036133;28;20021;-66
2021/12/01 00:41:40;;;;;;;0.33;0.17;;;;;;;;;;5054420;28;20265;-65
2021/12/01 00:44:07;;;;;;;0.73;0.30;;;;;;;;;;5054388;28;20717;-66
2021/12/01 00:46:41;;;;;;;1.00;0.20;;;;;;;;;;5054018;28;20242;-66
2021/12/01 00:49:07;;;;;;;1.30;0.38;;;;;;;;;;5054083;28;20100;-67
2021/12/01 00:51:32;;;;;;;0.65;0.10;;;;;;;;;;5054207;28;20087;-65
2021/12/01 00:53:57;;;;;;;0.83;0.10;;;;;;;;;;5054129;28;20413;-66
2021/12/01 00:56:23;;;;;;;0.77;0.17;;;;;;;;;;5054011;28;20017;-66
2021/12/01 00:58:48;;;;;;;0.30;0.10;;;;;;;;;;5053987;28;20635;-66
2021/12/01 01:01:13;;;;;;;0.30;0.10;;;;;;;;;;5053761;28;20403;-66
2021/12/01 01:03:39;;;;;;;0.17;0.17;;;;;;;;;;5053964;28;20517;-65
2021/12/01 01:06:04;;;;;;;0.73;0.20;;;;;;;;;;5053612;28;20253;-67
2021/12/01 01:08:30;;;;;;;0.82;0.40;;;;;;;;;;5053654;28;20438;-65
2021/12/01 01:16:22;;;;;;;1.33;0.30;;;;;;;;;;5053638;28;20024;-65
2021/12/01 01:18:49;;;;;;;0.50;0.10;;;;;;;;;;5053649;28;20049;-65
2021/12/01 01:21:15;;;;;;;1.73;0.13;;;;;;;;;;5053425;28;20028;-65
2021/12/01 01:23:40;;;;;;;0.80;0.10;;;;;;;;;;5053957;28;20020;-65
2021/12/01 01:26:06;;;;;;;0.32;0.30;;;;;;;;;;5053309;28;20083;-65
2021/12/01 01:28:31;;;;;;;0.17;0.10;;;;;;;;;;5053203;28;20021;-65
2021/12/01 01:30:57;;;;;;;2.20;0.20;;;;;;;;;;5053488;28;20017;-66
2021/12/01 01:33:22;;;;;;;0.30;0.20;;;;;;;;;;5053225;28;20020;-66
2021/12/01 01:35:48;;;;;;;0.20;0.20;;;;;;;;;;5053448;28;20055;-67
2021/12/01 01:38:13;;;;;;;1.60;0.15;;;;;;;;;;5053006;28;20257;-66
2021/12/01 01:40:38;;;;;;;0.95;0.30;;;;;;;;;;5053074;28;20021;-66
2021/12/01 01:43:04;;;;;;;0.17;0.10;;;;;;;;;;5053086;28;20456;-66
2021/12/01 01:45:29;;;;;;;1.63;0.20;;;;;;;;;;5053052;28;20282;-65
2021/12/01 01:48:06;;;;;;;0.82;0.20;;;;;;;;;;5053067;28;20467;-65
2021/12/01 01:50:38;;;;;;;1.30;0.20;;;;;;;;;;5052793;28;20100;-66
2021/12/01 01:53:05;;;;;;;0.47;0.20;;;;;;;;;;5052664;28;20025;-66
2021/12/01 01:55:30;;;;;;;0.40;0.10;;;;;;;;;;5052948;28;20025;-66
2021/12/01 01:57:55;;;;;;;0.88;0.20;;;;;;;;;;5052870;28;20087;-67
2021/12/01 02:00:20;;;;;;;0.83;0.10;;;;;;;;;;5052665;28;20028;-66
2021/12/01 02:02:47;;;;;;;1.33;0.10;;;;;;;;;;5052600;28;20831;-66
2021/12/01 02:05:12;;;;;;;0.93;0.17;;;;;;;;;;5052824;28;20238;-66
2021/12/01 02:07:37;;;;;;;2.25;0.32;;;;;;;;;;5052972;28;20100;-65
2021/12/01 02:10:03;;;;;;;0.00;0.00;;;;;;;;;;5052619;28;20024;-65
2021/12/01 02:12:29;;;;;;;0.73;0.20;;;;;;;;;;5052429;28;20021;-65
2021/12/01 02:14:54;;;;;;;2.10;0.25;;;;;;;;;;5052722;28;20349;-65
2021/12/01 02:17:19;;;;;;;0.65;0.20;;;;;;;;;;5052367;28;20021;-66
2021/12/01 02:19:44;;;;;;;0.98;0.20;;;;;;;;;;5052498;28;20075;-67
2021/12/01 02:22:09;;;;;;;1.63;0.23;;;;;;;;;;5052259;28;20032;-66
2021/12/01 02:24:35;;;;;;;0.20;0.20;;;;;;;;;;5052409;28;20277;-66
2021/12/01 02:27:00;;;;;;;1.75;0.22;;;;;;;;;;5052418;28;20756;-66
2021/12/01 02:29:26;;;;;;;0.95;0.20;;;;;;;;;;5052262;28;20384;-65
2021/12/01 02:31:52;;;;;;;0.70;0.10;;;;;;;;;;5052363;28;20063;-67
2021/12/01 02:34:19;;;;;;;0.73;0.38;;;;;;;;;;5051918;28;20074;-65
2021/12/01 02:36:46;;;;;;;0.75;0.20;;;;;;;;;;5052322;28;20043;-66
2021/12/01 02:39:13;;;;;;;0.75;0.17;;;;;;;;;;5052132;28;20364;-65
2021/12/01 02:41:38;;;;;;;0.73;0.20;;;;;;;;;;5052309;28;20479;-65
2021/12/01 02:44:04;;;;;;;0.30;0.10;;;;;;;;;;5034324;28;20025;-65
2021/12/01 02:46:30;;;;;;;1.20;0.30;;;;;;;;;;5052034;28;20090;-65
2021/12/01 02:48:56;;;;;;;0.50;0.10;;;;;;;;;;5052093;28;20064;-67
2021/12/01 02:51:26;;;;;;;1.63;0.30;;;;;;;;;;5051952;28;20118;-66
2021/12/01 02:53:51;;;;;;;1.25;0.38;;;;;;;;;;5052124;28;20009;-67
2021/12/01 02:56:17;;;;;;;1.33;0.20;;;;;;;;;;5051823;28;20020;-66
2021/12/01 02:58:43;;;;;;;0.35;0.08;;;;;;;;;;5034211;28;20021;-67
2021/12/01 03:01:10;;;;;;;1.38;0.22;;;;;;;;;;5052046;28;20123;-65
2021/12/01 03:03:36;;;;;;;1.30;0.45;;;;;;;;;;5053099;28;20041;-66
2021/12/01 03:06:01;;;;;;;0.75;0.55;;;;;;;;;;5056202;28;20431;-66
2021/12/01 03:08:28;;;;;;;1.83;0.43;;;;;;;;;;5055778;28;20407;-66
2021/12/01 03:10:54;;;;;;;1.55;0.82;;;;;;;;;;5056233;28;20396;-65
2021/12/01 03:13:19;;;;;;;0.52;0.15;;;;;;;;;;5055741;28;20088;-65
2021/12/01 03:15:45;;;;;;;0.22;0.10;;;;;;;;;;5038210;28;20044;-66
2021/12/01 03:18:11;;;;;;;1.50;0.10;;;;;;;;;;5055746;28;20063;-66
2021/12/01 03:20:36;;;;;;;0.63;0.15;;;;;;;;;;5055853;28;20028;-66
2021/12/01 03:23:02;;;;;;;1.48;0.17;;;;;;;;;;5055930;28;20028;-65
2021/12/01 03:25:27;;;;;;;0.32;0.15;;;;;;;;;;5055591;28;20021;-65
2021/12/01 03:27:53;;;;;;;0.90;0.20;;;;;;;;;;5055671;28;20116;-66
2021/12/01 03:30:18;;;;;;;1.20;0.10;;;;;;;;;;5055738;28;20062;-66
2021/12/01 03:32:43;;;;;;;0.75;0.10;;;;;;;;;;5055663;28;20024;-66
2021/12/01 03:35:10;;;;;;;1.73;0.40;;;;;;;;;;5055493;28;20031;-66
2021/12/01 03:37:35;;;;;;;1.65;0.30;;;;;;;;;;5055866;28;20325;-65
2021/12/01 03:40:00;;;;;;;0.70;0.13;;;;;;;;;;5055450;28;20132;-66
2021/12/01 03:42:26;;;;;;;0.95;0.17;;;;;;;;;;5055432;28;20025;-66
2021/12/01 03:44:53;;;;;;;2.38;0.30;;;;;;;;;;5055490;28;20017;-66
2021/12/01 03:47:18;;;;;;;1.27;0.30;;;;;;;;;;5055090;28;20020;-66
2021/12/01 03:49:43;;;;;;;0.30;0.20;;;;;;;;;;5055358;28;20067;-66
2021/12/01 03:52:14;;;;;;;0.70;0.10;;;;;;;;;;5055154;28;20250;-66
2021/12/01 03:54:39;;;;;;;0.38;0.20;;;;;;;;;;5055200;28;20017;-67
2021/12/01 03:57:04;;;;;;;1.15;0.20;;;;;;;;;;5055164;28;20071;-66
2021/12/01 03:59:29;;;;;;;0.77;0.10;;;;;;;;;;5055165;28;20029;-66
2021/12/01 04:01:54;;;;;;;1.45;0.30;;;;;;;;;;5055015;28;20496;-65
2021/12/01 04:04:20;;;;;;;0.80;0.37;;;;;;;;;;5054806;28;20025;-65
2021/12/01 04:06:45;;;;;;;0.22;0.10;;;;;;;;;;5054849;28;20601;-66
2021/12/01 04:09:10;;;;;;;0.43;0.20;;;;;;;;;;5054681;28;20021;-65
2021/12/01 04:11:37;;;;;;;1.13;0.20;;;;;;;;;;5055021;28;20258;-66
2021/12/01 04:14:02;;;;;;;0.40;0.20;;;;;;;;;;5054261;28;20246;-66
2021/12/01 04:16:27;;;;;;;1.00;0.27;;;;;;;;;;5054719;28;20028;-67
2021/12/01 04:18:53;;;;;;;0.83;0.10;;;;;;;;;;5054930;28;20260;-66
2021/12/01 04:21:20;;;;;;;1.60;0.20;;;;;;;;;;5054383;28;20292;-66
2021/12/01 04:23:45;;;;;;;1.13;0.10;;;;;;;;;;5054727;28;20063;-66
2021/12/01 04:26:14;;;;;;;0.60;0.20;;;;;;;;;;5054409;28;20021;-66
2021/12/01 04:28:39;;;;;;;1.05;0.10;;;;;;;;;;5054512;28;20302;-66
2021/12/01 04:31:05;;;;;;;0.67;0.07;;;;;;;;;;5054570;28;20056;-66
2021/12/01 04:33:30;;;;;;;1.50;0.20;;;;;;;;;;5054497;28;20265;-66
2021/12/01 04:35:56;;;;;;;1.35;0.20;;;;;;;;;;5054532;28;20441;-66
2021/12/01 04:38:21;;;;;;;0.77;0.20;;;;;;;;;;5054138;28;20516;-67
2021/12/01 04:40:46;;;;;;;0.85;0.20;;;;;;;;;;5054539;28;20028;-66
2021/12/01 04:43:11;;;;;;;1.23;0.10;;;;;;;;;;5036366;28;20423;-66
2021/12/01 04:45:41;;;;;;;0.50;0.27;;;;;;;;;;5054395;28;20029;-66
2021/12/01 04:48:06;;;;;;;0.57;0.30;;;;;;;;;;5054059;28;20602;-67
2021/12/01 04:50:32;;;;;;;0.70;0.10;;;;;;;;;;5054144;28;20452;-67
2021/12/01 04:52:58;;;;;;;1.67;0.20;;;;;;;;;;5054277;28;20268;-66
2021/12/01 04:55:23;;;;;;;0.85;0.17;;;;;;;;;;5053999;28;20272;-66
2021/12/01 04:57:49;;;;;;;0.70;0.22;;;;;;;;;;5054339;28;20467;-67
2021/12/01 05:00:17;;;;;;;1.40;0.20;;;;;;;;;;5053739;28;20051;-66
2021/12/01 05:02:42;;;;;;;0.57;0.10;;;;;;;;;;5053779;28;20056;-65
2021/12/01 05:05:07;;;;;;;0.50;0.10;;;;;;;;;;5053837;28;20021;-66
2021/12/01 05:07:33;;;;;;;0.15;0.13;;;;;;;;;;5054179;28;20029;-66
2021/12/01 05:09:58;;;;;;;0.75;0.20;;;;;;;;;;5053745;28;20407;-66
2021/12/01 05:12:23;;;;;;;1.02;0.20;;;;;;;;;;5053805;28;20017;-66
2021/12/01 05:14:49;;;;;;;0.28;0.00;;;;;;;;;;5053624;28;20566;-66
2021/12/01 05:17:14;;;;;;;0.68;0.10;;;;;;;;;;5053614;28;20079;-66
2021/12/01 05:19:39;;;;;;;0.63;0.10;;;;;;;;;;5053779;28;20020;-66
2021/12/01 05:22:05;;;;;;;1.23;0.20;;;;;;;;;;5053502;28;20244;-66
2021/12/01 05:24:30;;;;;;;1.52;0.30;;;;;;;;;;5053476;28;20021;-66
2021/12/01 05:26:55;;;;;;;0.40;0.10;;;;;;;;;;5052651;28;20283;-67
2021/12/01 05:29:22;;;;;;;0.40;0.10;;;;;;;;;;5053411;28;20025;-66
2021/12/01 05:31:48;;;;;;;1.08;0.30;;;;;;;;;;5053423;28;20027;-66
2021/12/01 05:34:13;;;;;;;1.65;0.20;;;;;;;;;;5035303;28;20095;-66
2021/12/01 05:36:38;;;;;;;0.87;0.20;;;;;;;;;;5053599;28;20509;-65
2021/12/01 05:39:03;;;;;;;0.47;0.20;;;;;;;;;;5053246;28;20257;-66
2021/12/01 05:41:29;;;;;;;0.20;0.10;;;;;;;;;;5053226;28;20024;-65
2021/12/01 05:43:54;;;;;;;0.32;0.10;;;;;;;;;;5053277;28;20021;-66
2021/12/01 05:46:19;;;;;;;0.37;0.20;;;;;;;;;;5052934;28;20036;-66
2021/12/01 05:48:44;;;;;;;0.57;0.15;;;;;;;;;;5052955;28;20267;-65
2021/12/01 05:51:09;;;;;;;1.25;0.30;;;;;;;;;;5052830;28;20021;-65
2021/12/01 05:53:35;;;;;;;0.40;0.10;;;;;;;;;;5052964;28;20372;-65
2021/12/01 05:56:00;;;;;;;0.82;0.30;;;;;;;;;;5052970;28;20025;-65
2021/12/01 05:58:25;;;;;;;1.50;0.20;;;;;;;;;;5052757;28;20025;-66
2021/12/01 06:00:50;;;;;;;1.10;0.10;;;;;;;;;;5052898;28;20345;-66
2021/12/01 06:03:16;;;;;;;1.50;0.10;;;;;;;;;;5052522;28;20056;-66
2021/12/01 06:05:43;;;;;;;1.08;0.10;;;;;;;;;;5052682;28;20303;-66
2021/12/01 06:08:08;;;;;;;0.35;0.10;;;;;;;;;;5052412;28;20067;-66
2021/12/01 06:10:33;;;;;;;0.90;0.17;;;;;;;;;;5052650;28;20029;-66
2021/12/01 06:12:59;;;;;;;0.82;0.10;;;;;;;;;;5052764;28;20300;-66
2021/12/01 06:15:25;;;;;;;1.02;0.20;;;;;;;;;;5052473;28;20048;-65
2021/12/01 06:17:50;;;;;;;0.17;0.10;;;;;;;;;;5052684;28;20460;-66
2021/12/01 06:20:15;;;;;;;0.47;0.20;;;;;;;;;;5052358;28;20086;-65
2021/12/01 06:22:41;;;;;;;1.65;0.10;;;;;;;;;;5052508;28;20029;-65
2021/12/01 06:25:07;;;;;;;0.08;0.00;;;;;;;;;;5052292;28;20657;-66
2021/12/01 06:27:32;;;;;;;1.13;0.28;;;;;;;;;;5052263;28;20024;-66
2021/12/01 06:29:57;;;;;;;1.20;0.30;;;;;;;;;;5052630;28;20021;-65
2021/12/01 06:32:22;;;;;;;0.73;0.10;;;;;;;;;;5052215;28;20013;-65
2021/12/01 06:34:48;;;;;;;0.80;0.20;;;;;;;;;;5052305;28;20594;-66
2021/12/01 06:37:15;;;;;;;0.55;0.22;;;;;;;;;;5052027;28;20379;-66
2021/12/01 06:39:40;;;;;;;1.10;0.10;;;;;;;;;;5052233;28;20028;-65
2021/12/01 06:42:05;;;;;;;0.85;0.10;;;;;;;;;;5052138;28;20564;-65
2021/12/01 06:44:30;;;;;;;0.30;0.08;;;;;;;;;;5051990;28;20523;-65
2021/12/01 06:46:56;;;;;;;0.32;0.20;;;;;;;;;;5052149;28;20021;-66
2021/12/01 06:49:21;;;;;;;1.02;0.30;;;;;;;;;;5052074;28;20024;-66
2021/12/01 06:51:47;;;;;;;2.07;0.20;;;;;;;;;;5034408;28;20017;-66
2021/12/01 06:54:12;;;;;;;0.93;0.15;;;;;;;;;;5051883;28;20036;-66
2021/12/01 06:56:37;;;;;;;0.93;0.30;;;;;;;;;;5034105;28;20017;-66
2021/12/01 06:59:03;;;;;;;0.40;0.15;;;;;;;;;;5051995;28;20242;-65
2021/12/01 07:01:28;;;;;;;0.68;0.20;;;;;;;;;;5051642;28;20062;-65
2021/12/01 07:03:53;;;;;;;0.30;0.10;;;;;;;;;;5052123;28;20024;-66
2021/12/01 07:06:18;;;;;;;1.08;0.30;;;;;;;;;;5051767;28;20250;-67
2021/12/01 07:08:43;;;;;;;1.13;0.20;;;;;;;;;;5051899;28;20041;-65
2021/12/01 07:11:09;;;;;;;0.35;0.00;;;;;;;;;;5051809;28;20250;-66
2021/12/01 07:13:35;;;;;;;0.35;0.10;;;;;;;;;;5051934;28;20368;-66
2021/12/01 07:16:00;;;;;;;0.70;0.10;;;;;;;;;;5051815;28;20021;-66
2021/12/01 07:18:26;;;;;;;1.20;0.22;;;;;;;;;;5051674;28;20021;-66
2021/12/01 07:20:51;;;;;;;0.47;0.17;;;;;;;;;;5051880;28;20487;-65
2021/12/01 07:23:16;;;;;;;1.77;0.20;;;;;;;;;;5051726;28;20480;-66
2021/12/01 07:25:41;;;;;;;0.70;0.03;;;;;;;;;;5051421;28;20258;-65
2021/12/01 07:28:07;;;;;;;0.20;0.10;;;;;;;;;;5050868;28;20056;-65
2021/12/01 07:30:35;;;;;;;0.95;0.15;;;;;;;;;;5051677;28;20341;-65
2021/12/01 07:33:00;;;;;;;0.95;0.20;;;;;;;;;;5051715;28;20100;-66
2021/12/01 07:35:25;;;;;;;1.15;0.28;;;;;;;;;;5051439;28;20531;-66
2021/12/01 07:37:50;;;;;;;1.17;0.17;;;;;;;;;;5051603;28;20075;-65
2021/12/01 07:40:16;;;;;;;2.05;0.10;;;;;;;;;;5051368;28;20025;-65
2021/12/01 07:42:41;;;;;;;0.90;0.20;;;;;;;;;;5051748;28;20044;-66
2021/12/01 07:45:07;;;;;;;0.50;0.10;;;;;;;;;;5047253;28;20357;-66
2021/12/01 07:47:32;;;;;;;0.90;0.22;;;;;;;;;;5050785;28;20031;-66
2021/12/01 07:49:58;;;;;;;1.23;0.32;;;;;;;;;;5051818;28;20021;-66
2021/12/01 07:52:23;;;;;;;0.17;0.10;;;;;;;;;;5054176;28;20020;-65
2021/12/01 07:54:48;;;;;;;0.20;0.10;;;;;;;;;;5064129;28;20040;-65
2021/12/01 07:57:14;;;;;;;0.10;0.10;;;;;;;;;;5054393;28;20269;-65
2021/12/01 07:59:39;;;;;;;0.40;0.20;;;;;;;;;;5054471;28;20460;-65
2021/12/01 08:02:04;;;;;;;1.65;0.13;;;;;;;;;;5053886;28;20041;-66
2021/12/01 08:04:29;;;;;;;0.93;0.28;;;;;;;;;;5054353;28;20029;-66
2021/12/01 08:06:56;;;;;;;0.70;0.17;;;;;;;;;;5054276;28;20123;-66
2021/12/01 08:09:21;;;;;;;1.13;0.10;;;;;;;;;;5053225;28;20284;-66
2021/12/01 08:11:46;;;;;;;1.00;0.43;;;;;;;;;;5054401;28;20345;-65
2021/12/01 08:14:12;;;;;;;0.75;0.30;;;;;;;;;;5053876;28;20017;-66
2021/12/01 08:16:37;;;;;;;0.65;0.10;;;;;;;;;;5054001;28;20028;-65
2021/12/01 08:19:03;;;;;;;1.30;0.20;;;;;;;;;;5053590;28;20483;-65
2021/12/01 08:21:28;;;;;;;0.73;0.10;;;;;;;;;;5053673;28;20102;-65
2021/12/01 08:23:54;;;;;;;0.22;0.17;;;;;;;;;;5043875;28;20032;-65
2021/12/01 08:26:20;;;;;;;0.27;0.10;;;;;;;;;;5053678;28;20531;-65
2021/12/01 08:28:46;;;;;;;1.95;0.25;;;;;;;;;;5053479;28;20273;-64
2021/12/01 08:31:16;;;;;;;2.15;0.10;;;;;;;;;;5035757;28;20031;-65
2021/12/01 08:33:41;;;;;;;0.60;0.15;;;;;;;;;;5053642;28;20066;-65
2021/12/01 08:36:06;;;;;;;1.02;0.17;;;;;;;;;;5053574;28;20021;-65
2021/12/01 08:38:31;;;;;;;0.52;0.17;;;;;;;;;;5050418;28;20484;-66
2021/12/01 08:40:58;;;;;;;0.40;0.03;;;;;;;;;;5053652;28;20442;-66
2021/12/01 08:43:23;;;;;;;0.90;0.35;;;;;;;;;;5056097;28;20536;-66
2021/12/01 08:45:48;;;;;;;2.40;0.10;;;;;;;;;;5055633;28;20119;-66
2021/12/01 08:48:13;;;;;;;0.70;0.43;;;;;;;;;;5053208;28;20029;-65
2021/12/01 08:50:38;;;;;;;1.70;0.13;;;;;;;;;;5053213;28;20348;-66
2021/12/01 08:53:04;;;;;;;0.80;0.10;;;;;;;;;;5057054;28;20251;-66
2021/12/01 08:55:29;;;;;;;0.97;0.20;;;;;;;;;;5073802;28;20024;-66
2021/12/01 08:57:54;;;;;;;0.60;0.13;;;;;;;;;;5074199;28;20241;-66
2021/12/01 09:00:20;;;;;;;0.20;0.10;;;;;;;;;;5073695;28;20642;-65
2021/12/01 09:02:46;;;;;;;0.98;0.10;;;;;;;;;;5073696;28;20373;-66
2021/12/01 09:05:11;;;;;;;0.68;0.20;;;;;;;;;;5073771;28;20069;-66
2021/12/01 09:07:37;;;;;;;1.50;0.20;;;;;;;;;;5056655;28;20017;-65
2021/12/01 09:10:03;;;;;;;1.40;0.32;;;;;;;;;;5052989;28;20017;-65
2021/12/01 09:12:28;;;;;;;1.67;0.20;;;;;;;;;;5053350;28;20387;-64
2021/12/01 09:14:55;;;;;;;1.02;0.35;;;;;;;;;;5052951;28;20029;-65
2021/12/01 09:17:20;;;;;;;0.95;0.22;;;;;;;;;;5053030;28;20024;-65
2021/12/01 09:19:45;;;;;;;0.35;0.10;;;;;;;;;;5052375;28;20058;-65
2021/12/01 09:22:12;;;;;;;0.57;0.38;;;;;;;;;;5053062;28;20475;-66
2021/12/01 09:24:38;;;;;;;0.30;0.10;;;;;;;;;;5052929;28;20495;-67
2021/12/01 09:27:04;;;;;;;2.70;0.82;;;;;;;;;;5052252;28;20024;-65
2021/12/01 09:29:29;;;;;;;0.88;0.43;;;;;;;;;;5051735;28;20017;-65
2021/12/01 09:31:55;;;;;;;2.95;0.55;;;;;;;;;;5051670;28;20031;-65
2021/12/01 09:34:20;;;;;;;2.38;0.32;;;;;;;;;;5052798;28;20031;-66
2021/12/01 09:36:45;;;;;;;1.60;0.20;;;;;;;;;;5041268;28;20027;-66
2021/12/01 09:39:10;;;;;;;0.20;0.00;;;;;;;;;;5053292;28;20629;-65
2021/12/01 09:41:36;;;;;;;0.53;0.10;;;;;;;;;;5053773;28;20040;-66
2021/12/01 09:44:01;;;;;;;0.88;0.20;;;;;;;;;;5034962;28;20632;-65
2021/12/01 09:46:30;;;;;;;0.50;0.10;;;;;;;;;;5052813;28;20067;-64
2021/12/01 09:48:55;;;;;;;0.30;0.20;;;;;;;;;;5053081;28;20103;-64
2021/12/01 09:51:21;;;;;;;1.63;0.13;;;;;;;;;;5054030;28;20044;-66
2021/12/01 09:53:46;;;;;;;1.13;0.40;;;;;;;;;;5063430;28;20714;-65
2021/12/01 09:56:11;;;;;;;0.30;0.30;;;;;;;;;;5048751;28;20527;-65
2021/12/01 09:58:37;;;;;;;0.82;0.52;;;;;;;;;;5044171;28;20276;-64
2021/12/01 10:01:06;;;;;;;0.13;0.08;;;;;;;;;;5034170;28;20021;-66
2021/12/01 10:03:32;;;;;;;0.90;0.30;;;;;;;;;;5052316;28;20084;-67
2021/12/01 10:06:03;;;;;;;0.50;0.10;;;;;;;;;;5060100;28;20526;-66
2021/12/01 10:08:45;;;;;;;0.70;0.20;;;;;;;;;;5060714;28;20102;-65
2021/12/01 10:11:11;;;;;;;1.52;0.40;;;;;;;;;;5067078;28;20025;-65
2021/12/01 10:13:40;;;;;;;0.65;0.10;;;;;;;;;;5052277;28;20052;-66
2021/12/01 10:16:06;;;;;;;0.15;0.15;;;;;;;;;;5064039;28;20028;-65
2021/12/01 10:18:36;;;;;;;0.82;0.30;;;;;;;;;;5053806;28;20017;-65
2021/12/01 10:21:11;;;;;;;1.05;0.20;;;;;;;;;;5051915;28;20017;-66
2021/12/01 10:23:38;;;;;;;1.58;0.22;;;;;;;;;;5052342;28;20032;-66
2021/12/01 10:26:26;;;;;;;2.15;0.17;;;;;;;;;;5052229;28;20368;-66
2021/12/01 10:28:53;;;;;;;2.75;0.40;;;;;;;;;;5030914;28;20041;-65
2021/12/01 10:31:38;;;;;;;0.77;0.20;;;;;;;;;;5037487;28;20025;-64
2021/12/01 10:34:13;;;;;;;0.93;0.30;;;;;;;;;;5034152;28;20386;-65
2021/12/01 10:36:38;;;;;;;;;;;;;;;;;;5052559;28;20017;-66
2021/12/01 10:39:04;;;;;;;0.90;0.20;;;;;;;;;;5053677;28;19905;-66
2021/12/01 10:41:33;;;;;;;1.17;0.10;;;;;;;;;;5072148;28;20104;-65
2021/12/01 10:44:07;;;;;;;0.30;0.10;;;;;;;;;;5054068;28;20025;-65
2021/12/01 10:46:41;;;;;;;0.95;0.20;;;;;;;;;;5065453;28;20380;-66
2021/12/01 10:49:07;;;;;;;0.82;0.22;;;;;;;;;;5051161;28;20021;-66
2021/12/01 10:51:37;;;;;;;0.98;0.55;;;;;;;;;;5054728;28;20032;-66
2021/12/01 10:54:03;;;;;;;1.08;0.30;;;;;;;;;;5055691;28;20013;-65
2021/12/01 10:56:28;;;;;;;0.30;0.10;;;;;;;;;;5060607;28;20039;-66
2021/12/01 10:58:53;;;;;;;0.50;0.20;;;;;;;;;;5066811;28;20472;-66
2021/12/01 11:01:25;;;;;;;1.03;0.30;;;;;;;;;;5049964;28;20105;-66
2021/12/01 11:03:51;;;;;;;0.30;0.10;;;;;;;;;;5051148;28;20281;-66
2021/12/01 11:06:19;;;;;;;0.65;0.17;;;;;;;;;;5049428;28;20033;-65
2021/12/01 11:08:46;;;;;;;0.73;0.20;;;;;;;;;;5033765;28;20044;-66
2021/12/01 11:11:12;;;;;;;0.57;0.20;;;;;;;;;;5050942;28;20040;-66
2021/12/01 11:13:41;;;;;;;1.17;0.10;;;;;;;;;;5051171;28;20019;-65
2021/12/01 11:16:07;;;;;;;0.08;0.08;;;;;;;;;;5050923;28;20021;-66
2021/12/01 11:18:34;;;;;;;1.27;0.20;;;;;;;;;;5051034;28;20066;-66
2021/12/01 11:21:00;;;;;;;1.35;0.52;;;;;;;;;;5050962;28;20456;-66
2021/12/01 11:23:30;;;;;;;0.40;0.30;;;;;;;;;;5051318;28;20495;-67
2021/12/01 11:25:55;;;;;;;0.63;0.10;;;;;;;;;;5055200;28;20048;-66
2021/12/01 11:28:22;;;;;;;1.48;0.15;;;;;;;;;;5055570;28;20053;-66
2021/12/01 11:30:49;;;;;;;0.90;0.20;;;;;;;;;;5055774;28;20358;-65
2021/12/01 11:33:16;;;;;;;1.20;0.55;;;;;;;;;;5055670;28;20023;-66
2021/12/01 11:35:43;;;;;;;1.65;0.28;;;;;;;;;;5055815;28;20013;-65
2021/12/01 11:38:09;;;;;;;1.85;0.30;;;;;;;;;;5055727;28;20027;-66
2021/12/01 11:40:34;;;;;;;0.85;0.25;;;;;;;;;;5055411;28;20017;-65
2021/12/01 11:42:59;;;;;;;1.35;0.25;;;;;;;;;;5055456;28;20055;-67
2021/12/01 11:45:25;;;;;;;1.40;0.40;;;;;;;;;;5055373;28;20017;-66
2021/12/01 11:47:51;;;;;;;0.10;0.03;;;;;;;;;;5055534;28;20293;-67
2021/12/01 11:50:33;;;;;;;1.25;0.10;;;;;;;;;;5054112;28;20108;-67
2021/12/01 11:53:15;;;;;;;0.82;0.10;;;;;;;;;;5054203;28;20013;-66
2021/12/01 11:55:46;;;;;;;0.10;0.10;;;;;;;;;;5050170;28;20029;-66
2021/12/01 11:58:31;;;;;;;1.40;0.17;;;;;;;;;;5051082;28;20439;-66
2021/12/01 12:00:57;;;;;;;0.35;0.20;;;;;;;;;;5036580;28;20032;-66
2021/12/01 12:03:25;;;;;;;1.13;0.20;;;;;;;;;;5052751;28;20040;-66
2021/12/01 12:06:10;;;;;;;1.00;0.20;;;;;;;;;;5032320;28;20494;-66
2021/12/01 12:08:53;;;;;;;0.45;0.20;;;;;;;;;;5053061;28;20024;-66
2021/12/01 12:11:34;;;;;;;0.47;0.30;;;;;;;;;;5052234;28;20029;-67
2021/12/01 12:14:01;;;;;;;1.35;0.65;;;;;;;;;;5053027;28;20451;-67
2021/12/01 12:16:26;;;;;;;2.10;0.25;;;;;;;;;;5059077;28;20032;-66
2021/12/01 12:18:53;;;;;;;1.13;0.30;;;;;;;;;;5053814;28;20368;-67
2021/12/01 12:21:43;;;;;;;1.42;0.25;;;;;;;;;;5036004;28;20531;-66
2021/12/01 12:24:15;;;;;;;0.52;0.20;;;;;;;;;;5045606;28;20147;-67
2021/12/01 12:26:45;;;;;;;0.55;0.13;;;;;;;;;;5052309;28;20020;-67
2021/12/01 12:29:13;;;;;;;0.90;0.20;;;;;;;;;;5047597;28;20017;-67
2021/12/01 12:31:38;;;;;;;0.20;0.03;;;;;;;;;;5052793;28;20024;-66
2021/12/01 12:34:08;;;;;;;0.25;0.10;;;;;;;;;;5053334;28;20017;-66
2021/12/01 12:36:37;;;;;;;0.43;0.10;;;;;;;;;;5043805;28;20399;-66
2021/12/01 12:39:05;;;;;;;0.20;0.10;;;;;;;;;;5047499;28;20021;-66
2021/12/01 12:41:30;;;;;;;0.82;0.20;;;;;;;;;;5049549;28;20399;-66
2021/12/01 12:44:15;;;;;;;0.20;0.10;;;;;;;;;;5053323;28;20035;-66
2021/12/01 12:46:40;;;;;;;0.85;0.20;;;;;;;;;;5052062;28;20029;-65
2021/12/01 12:49:05;;;;;;;0.53;0.20;;;;;;;;;;5050467;28;20029;-65
2021/12/01 12:51:33;;;;;;;1.85;0.20;;;;;;;;;;5051309;28;20043;-66
2021/12/01 12:54:01;;;;;;;1.38;0.35;;;;;;;;;;5051713;28;20017;-67
2021/12/01 12:56:29;;;;;;;1.23;0.10;;;;;;;;;;5053468;28;20024;-67
2021/12/01 12:59:13;;;;;;;0.82;0.30;;;;;;;;;;5051114;28;20052;-67
2021/12/01 13:01:38;;;;;;;2.20;0.40;;;;;;;;;;5051665;28;20113;-67
2021/12/01 13:04:04;;;;;;;1.10;0.47;;;;;;;;;;5035989;28;20025;-66
2021/12/01 13:06:29;;;;;;;1.35;0.50;;;;;;;;;;5051698;28;20538;-66
2021/12/01 13:09:13;;;;;;;2.40;1.23;;;;;;;;;;5058675;28;20099;-66
2021/12/01 13:11:38;;;;;;;2.60;0.90;;;;;;;;;;5053344;28;20009;-66
2021/12/01 13:14:03;;;;;;;1.80;0.80;;;;;;;;;;5058525;28;20461;-66
2021/12/01 13:16:29;;;;;;;1.33;1.10;;;;;;;;;;5052345;28;20457;-66
2021/12/01 13:18:55;;;;;;;2.13;1.30;;;;;;;;;;5051761;28;20250;-67
2021/12/01 13:21:21;;;;;;;1.95;0.88;;;;;;;;;;5046569;28;20025;-66
2021/12/01 13:23:51;;;;;;;1.67;1.10;;;;;;;;;;5052463;28;20013;-67
2021/12/01 13:26:18;;;;;;;1.48;1.02;;;;;;;;;;5068709;28;20028;-67
2021/12/01 13:28:52;;;;;;;2.17;0.73;;;;;;;;;;5055670;28;20059;-67
2021/12/01 13:31:34;;;;;;;1.40;1.10;;;;;;;;;;5051458;28;20507;-66
2021/12/01 13:34:05;;;;;;;1.15;0.52;;;;;;;;;;5050343;28;20491;-67
2021/12/01 13:36:32;;;;;;;2.92;1.10;;;;;;;;;;5048480;28;20021;-67
2021/12/01 13:39:12;;;;;;;1.33;0.60;;;;;;;;;;5058466;28;20024;-66
2021/12/01 13:41:37;;;;;;;1.48;0.50;;;;;;;;;;5056720;28;20486;-67
2021/12/01 13:44:04;;;;;;;2.63;0.83;;;;;;;;;;5052776;28;20025;-69
2021/12/01 13:46:29;;;;;;;1.20;0.57;;;;;;;;;;5052529;28;20925;-67
2021/12/01 13:48:56;;;;;;;1.20;0.68;;;;;;;;;;5052160;28;20025;-67
2021/12/01 13:51:22;;;;;;;2.05;0.82;;;;;;;;;;5053147;28;20096;-67
2021/12/01 13:53:47;;;;;;;0.98;0.57;;;;;;;;;;5042709;28;20024;-66
2021/12/01 13:56:15;;;;;;;1.67;0.40;;;;;;;;;;5052212;28;20031;-67
2021/12/01 13:58:40;;;;;;;1.50;0.50;;;;;;;;;;5052375;28;20613;-68
2021/12/01 14:01:07;;;;;;;0.85;0.70;;;;;;;;;;5052647;28;20029;-67
2021/12/01 14:03:33;;;;;;;0.30;0.20;;;;;;;;;;5040475;28;20502;-67
2021/12/01 14:06:04;;;;;;;1.20;0.28;;;;;;;;;;5045125;28;20041;-68
2021/12/01 14:08:29;;;;;;;1.30;0.40;;;;;;;;;;5052452;28;20017;-66
2021/12/01 14:10:57;;;;;;;2.42;0.50;;;;;;;;;;5051191;28;20032;-67
2021/12/01 14:13:24;;;;;;;1.38;0.40;;;;;;;;;;5051507;28;20025;-66
2021/12/01 14:15:50;;;;;;;1.55;0.82;;;;;;;;;;5050990;28;20455;-65
2021/12/01 14:18:16;;;;;;;0.80;0.30;;;;;;;;;;5051585;28;20033;-65
2021/12/01 14:20:41;;;;;;;1.38;0.38;;;;;;;;;;5051471;28;20049;-67
2021/12/01 14:23:07;;;;;;;0.32;0.25;;;;;;;;;;5050242;28;20083;-65
2021/12/01 14:25:33;;;;;;;0.82;0.20;;;;;;;;;;5052390;28;20449;-66
2021/12/01 14:28:03;;;;;;;1.45;0.30;;;;;;;;;;5051881;28;20468;-65
2021/12/01 14:30:28;;;;;;;0.55;0.10;;;;;;;;;;5051909;28;20032;-66
2021/12/01 14:32:53;;;;;;;0.52;0.20;;;;;;;;;;5050664;28;20143;-67
2021/12/01 14:35:20;;;;;;;1.30;0.70;;;;;;;;;;5057470;28;20049;-65
2021/12/01 14:37:45;;;;;;;0.65;0.30;;;;;;;;;;5059580;28;20344;-66
2021/12/01 14:40:13;;;;;;;1.30;0.28;;;;;;;;;;5054249;28;20157;-67
2021/12/01 14:42:42;;;;;;;0.77;0.13;;;;;;;;;;5060201;28;20066;-66
2021/12/01 14:45:07;;;;;;;0.60;0.10;;;;;;;;;;5051439;28;20078;-67